sensor_id;sensor_type;location;lat;lon;timestamp;pressure;altitude;pressure_sealevel;temperature;humidity
13695;BME280;6919;52.344;14.518;2022-10-17T00:01:10;101453.47;;;15.82;100.00
13695;BME280;6919;52.344;14.518;2022-10-17T00:03:40;101451.78;;;15.81;100.00
13695;BME280;6919;52.344;14.518;2022-10-17T00:06:10;101446.38;;;15.73;100.00
13695;BME280;6919;52.344;14.518;2022-10-17T00:08:44;101457.03;;;15.83;100.00
13695;BME280;6919;52.344;14.518;2022-10-17T00:11:16;101452.63;;;15.82;100.00
13695;BME280;6919;52.344;14.518;2022-10-17T00:13:45;101468.34;;;15.78;100.00
13695;BME280;6919;52.344;14.518;2022-10-17T00:16:14;101458.03;;;15.98;100.00
13695;BME280;6919;52.344;14.518;2022-10-17T00:18:42;101454.47;;;15.89;100.00
13695;BME280;6919;52.344;14.518;2022-10-17T00:21:16;101451.28;;;15.86;100.00
13695;BME280;6919;52.344;14.518;2022-10-17T00:23:46;101454.16;;;15.76;100.00
13695;BME280;6919;52.344;14.518;2022-10-17T00:26:15;101458.88;;;15.74;100.00
13695;BME280;6919;52.344;14.518;2022-10-17T00:28:45;101456.53;;;15.87;100.00
13695;BME280;6919;52.344;14.518;2022-10-17T00:31:15;101450.94;;;15.89;100.00
13695;BME280;6919;52.344;14.518;2022-10-17T00:33:43;101468.38;;;16.10;100.00
13695;BME280;6919;52.344;14.518;2022-10-17T00:36:14;101472.59;;;16.21;100.00
13695;BME280;6919;52.344;14.518;2022-10-17T00:38:46;101478.84;;;16.13;100.00
13695;BME280;6919;52.344;14.518;2022-10-17T00:41:20;101486.63;;;16.24;100.00
13695;BME280;6919;52.344;14.518;2022-10-17T00:43:55;101475.78;;;16.32;100.00
13695;BME280;6919;52.344;14.518;2022-10-17T00:46:26;101478.19;;;16.27;100.00
13695;BME280;6919;52.344;14.518;2022-10-17T00:48:58;101476.50;;;16.26;100.00
13695;BME280;6919;52.344;14.518;2022-10-17T00:51:33;101477.50;;;16.25;100.00
13695;BME280;6919;52.344;14.518;2022-10-17T00:54:06;101485.13;;;16.22;100.00
13695;BME280;6919;52.344;14.518;2022-10-17T00:56:36;101480.03;;;16.27;100.00
13695;BME280;6919;52.344;14.518;2022-10-17T00:59:07;101477.84;;;16.30;100.00
13695;BME280;6919;52.344;14.518;2022-10-17T01:01:36;101472.06;;;16.25;100.00
13695;BME280;6919;52.344;14.518;2022-10-17T01:04:04;101468.38;;;16.18;100.00
13695;BME280;6919;52.344;14.518;2022-10-17T01:06:32;101458.56;;;16.17;100.00
13695;BME280;6919;52.344;14.518;2022-10-17T01:09:00;101454.34;;;16.15;100.00
13695;BME280;6919;52.344;14.518;2022-10-17T01:11:38;101448.91;;;16.15;100.00
13695;BME280;6919;52.344;14.518;2022-10-17T01:14:19;101444.03;;;16.02;100.00
13695;BME280;6919;52.344;14.518;2022-10-17T01:16:57;101443.34;;;16.16;100.00
13695;BME280;6919;52.344;14.518;2022-10-17T01:19:49;101445.72;;;16.11;100.00
13695;BME280;6919;52.344;14.518;2022-10-17T01:22:31;101453.47;;;16.14;100.00
13695;BME280;6919;52.344;14.518;2022-10-17T01:25:24;101452.31;;;16.17;100.00
13695;BME280;6919;52.344;14.518;2022-10-17T01:28:20;101454.16;;;16.24;100.00
13695;BME280;6919;52.344;14.518;2022-10-17T01:30:58;101452.47;;;16.15;100.00
13695;BME280;6919;52.344;14.518;2022-10-17T01:33:54;101452.47;;;16.15;100.00
13695;BME280;6919;52.344;14.518;2022-10-17T01:36:38;101451.13;;;16.11;100.00
13695;BME280;6919;52.344;14.518;2022-10-17T01:39:21;101450.28;;;16.11;100.00
13695;BME280;6919;52.344;14.518;2022-10-17T01:41:58;101455.84;;;16.17;100.00
13695;BME280;6919;52.344;14.518;2022-10-17T01:44:38;101460.59;;;16.15;100.00
13695;BME280;6919;52.344;14.518;2022-10-17T01:47:16;101462.78;;;16.04;100.00
13695;BME280;6919;52.344;14.518;2022-10-17T01:49:50;101467.00;;;15.98;100.00
13695;BME280;6919;52.344;14.518;2022-10-17T01:52:25;101463.63;;;15.96;100.00
13695;BME280;6919;52.344;14.518;2022-10-17T01:55:02;101452.63;;;15.90;100.00
13695;BME280;6919;52.344;14.518;2022-10-17T01:57:37;101447.22;;;15.82;100.00
13695;BME280;6919;52.344;14.518;2022-10-17T02:00:13;101451.44;;;15.84;100.00
13695;BME280;6919;52.344;14.518;2022-10-17T02:02:47;101452.47;;;15.83;100.00
13695;BME280;6919;52.344;14.518;2022-10-17T02:05:21;101451.44;;;15.92;100.00
13695;BME280;6919;52.344;14.518;2022-10-17T02:07:51;101446.72;;;15.94;100.00
13695;BME280;6919;52.344;14.518;2022-10-17T02:10:30;101443.00;;;15.95;100.00
13695;BME280;6919;52.344;14.518;2022-10-17T02:13:05;101436.41;;;16.06;100.00
13695;BME280;6919;52.344;14.518;2022-10-17T02:16:06;101432.38;;;16.10;100.00
13695;BME280;6919;52.344;14.518;2022-10-17T02:18:57;101436.09;;;16.17;100.00
13695;BME280;6919;52.344;14.518;2022-10-17T02:21:39;101438.94;;;16.15;100.00
13695;BME280;6919;52.344;14.518;2022-10-17T02:24:20;101439.28;;;16.20;100.00
13695;BME280;6919;52.344;14.518;2022-10-17T02:27:03;101446.19;;;16.23;100.00
13695;BME280;6919;52.344;14.518;2022-10-17T02:29:46;101439.63;;;16.17;100.00
13695;BME280;6919;52.344;14.518;2022-10-17T02:32:23;101443.34;;;16.08;100.00
13695;BME280;6919;52.344;14.518;2022-10-17T02:34:59;101446.06;;;16.08;100.00
13695;BME280;6919;52.344;14.518;2022-10-17T02:37:30;101446.91;;;15.93;100.00
13695;BME280;6919;52.344;14.518;2022-10-17T02:40:00;101442.66;;;16.06;100.00
13695;BME280;6919;52.344;14.518;2022-10-17T02:42:30;101445.69;;;15.79;100.00
13695;BME280;6919;52.344;14.518;2022-10-17T02:45:01;101447.69;;;15.61;100.00
13695;BME280;6919;52.344;14.518;2022-10-17T02:47:35;101454.59;;;15.56;100.00
13695;BME280;6919;52.344;14.518;2022-10-17T02:50:08;101452.41;;;15.59;100.00
13695;BME280;6919;52.344;14.518;2022-10-17T02:52:45;101451.44;;;15.76;100.00
13695;BME280;6919;52.344;14.518;2022-10-17T02:55:18;101449.22;;;15.72;100.00
13695;BME280;6919;52.344;14.518;2022-10-17T02:57:49;101451.78;;;15.65;100.00
13695;BME280;6919;52.344;14.518;2022-10-17T03:00:21;101441.94;;;15.64;100.00
13695;BME280;6919;52.344;14.518;2022-10-17T03:02:52;101452.03;;;15.46;100.00
13695;BME280;6919;52.344;14.518;2022-10-17T03:05:25;101453.56;;;15.49;100.00
13695;BME280;6919;52.344;14.518;2022-10-17T03:07:55;101444.09;;;15.45;100.00
13695;BME280;6919;52.344;14.518;2022-10-17T03:10:23;101446.16;;;15.51;100.00
13695;BME280;6919;52.344;14.518;2022-10-17T03:12:51;101446.00;;;15.60;100.00
13695;BME280;6919;52.344;14.518;2022-10-17T03:15:19;101449.41;;;15.62;100.00
13695;BME280;6919;52.344;14.518;2022-10-17T03:17:47;101451.25;;;15.70;100.00
13695;BME280;6919;52.344;14.518;2022-10-17T03:20:15;101451.56;;;15.59;100.00
13695;BME280;6919;52.344;14.518;2022-10-17T03:22:44;101446.00;;;15.60;100.00
13695;BME280;6919;52.344;14.518;2022-10-17T03:25:13;101453.47;;;15.74;100.00
13695;BME280;6919;52.344;14.518;2022-10-17T03:27:41;101446.88;;;15.77;100.00
13695;BME280;6919;52.344;14.518;2022-10-17T03:30:09;101456.16;;;15.74;100.00
13695;BME280;6919;52.344;14.518;2022-10-17T03:32:37;101453.94;;;15.62;100.00
13695;BME280;6919;52.344;14.518;2022-10-17T03:35:06;101449.56;;;15.69;100.00
13695;BME280;6919;52.344;14.518;2022-10-17T03:37:41;101457.66;;;15.61;100.00
13695;BME280;6919;52.344;14.518;2022-10-17T03:40:10;101463.25;;;15.67;100.00
13695;BME280;6919;52.344;14.518;2022-10-17T03:42:38;101465.63;;;15.62;100.00
13695;BME280;6919;52.344;14.518;2022-10-17T03:45:07;101462.72;;;15.56;100.00
13695;BME280;6919;52.344;14.518;2022-10-17T03:47:36;101460.84;;;15.56;100.00
13695;BME280;6919;52.344;14.518;2022-10-17T03:50:05;101465.44;;;15.64;100.00
13695;BME280;6919;52.344;14.518;2022-10-17T03:52:33;101460.72;;;15.66;100.00
13695;BME280;6919;52.344;14.518;2022-10-17T03:55:01;101463.25;;;15.67;100.00
13695;BME280;6919;52.344;14.518;2022-10-17T03:57:33;101464.09;;;15.76;100.00
13695;BME280;6919;52.344;14.518;2022-10-17T04:00:02;101457.88;;;15.83;100.00
13695;BME280;6919;52.344;14.518;2022-10-17T04:02:30;101455.47;;;15.72;100.00
13695;BME280;6919;52.344;14.518;2022-10-17T04:04:58;101457.47;;;15.54;100.00
13695;BME280;6919;52.344;14.518;2022-10-17T04:07:26;101452.25;;;15.61;100.00
13695;BME280;6919;52.344;14.518;2022-10-17T04:09:54;101454.28;;;15.59;100.00
13695;BME280;6919;52.344;14.518;2022-10-17T04:12:22;101444.81;;;15.63;100.00
13695;BME280;6919;52.344;14.518;2022-10-17T04:14:52;101438.91;;;15.67;100.00
13695;BME280;6919;52.344;14.518;2022-10-17T04:17:20;101445.34;;;15.58;100.00
13695;BME280;6919;52.344;14.518;2022-10-17T04:19:48;101444.47;;;15.58;100.00
13695;BME280;6919;52.344;14.518;2022-10-17T04:22:16;101445.63;;;15.47;100.00
13695;BME280;6919;52.344;14.518;2022-10-17T04:24:44;101442.28;;;15.61;100.00
13695;BME280;6919;52.344;14.518;2022-10-17T04:27:12;101446.47;;;15.56;100.00
13695;BME280;6919;52.344;14.518;2022-10-17T04:29:41;101452.91;;;15.47;100.00
13695;BME280;6919;52.344;14.518;2022-10-17T04:32:11;101447.66;;;15.53;100.00
13695;BME280;6919;52.344;14.518;2022-10-17T04:34:39;101458.47;;;15.45;100.00
13695;BME280;6919;52.344;14.518;2022-10-17T04:37:07;101454.09;;;15.52;100.00
13695;BME280;6919;52.344;14.518;2022-10-17T04:39:35;101457.22;;;15.32;100.00
13695;BME280;6919;52.344;14.518;2022-10-17T04:42:03;101450.69;;;15.42;100.00
13695;BME280;6919;52.344;14.518;2022-10-17T04:44:31;101450.63;;;15.34;100.00
13695;BME280;6919;52.344;14.518;2022-10-17T04:47:01;101452.19;;;15.37;100.00
13695;BME280;6919;52.344;14.518;2022-10-17T04:49:30;101450.84;;;15.41;100.00
13695;BME280;6919;52.344;14.518;2022-10-17T04:51:58;101446.63;;;15.38;100.00
13695;BME280;6919;52.344;14.518;2022-10-17T04:54:26;101445.09;;;15.36;100.00
13695;BME280;6919;52.344;14.518;2022-10-17T04:56:54;101439.72;;;15.44;100.00
13695;BME280;6919;52.344;14.518;2022-10-17T04:59:22;101444.59;;;15.40;100.00
13695;BME280;6919;52.344;14.518;2022-10-17T05:01:50;101447.72;;;15.28;100.00
13695;BME280;6919;52.344;14.518;2022-10-17T05:04:19;101451.28;;;15.28;100.00
13695;BME280;6919;52.344;14.518;2022-10-17T05:06:52;101459.28;;;15.38;100.00
13695;BME280;6919;52.344;14.518;2022-10-17T05:09:20;101451.72;;;15.41;100.00
13695;BME280;6919;52.344;14.518;2022-10-17T05:11:48;101449.34;;;15.46;100.00
13695;BME280;6919;52.344;14.518;2022-10-17T05:14:16;101440.22;;;15.47;100.00
13695;BME280;6919;52.344;14.518;2022-10-17T05:16:44;101438.53;;;15.46;100.00
13695;BME280;6919;52.344;14.518;2022-10-17T05:19:12;101434.16;;;15.53;100.00
13695;BME280;6919;52.344;14.518;2022-10-17T05:21:40;101431.94;;;15.41;100.00
13695;BME280;6919;52.344;14.518;2022-10-17T05:24:15;101428.22;;;15.42;100.00
13695;BME280;6919;52.344;14.518;2022-10-17T05:26:43;101429.06;;;15.42;100.00
13695;BME280;6919;52.344;14.518;2022-10-17T05:29:11;101423.63;;;15.34;100.00
13695;BME280;6919;52.344;14.518;2022-10-17T05:31:39;101427.38;;;15.49;100.00
13695;BME280;6919;52.344;14.518;2022-10-17T05:34:08;101437.16;;;15.42;100.00
13695;BME280;6919;52.344;14.518;2022-10-17T05:36:39;101440.16;;;15.31;100.00
13695;BME280;6919;52.344;14.518;2022-10-17T05:39:11;101443.22;;;15.36;100.00
13695;BME280;6919;52.344;14.518;2022-10-17T05:41:40;101429.22;;;15.41;100.00
13695;BME280;6919;52.344;14.518;2022-10-17T05:44:08;101440.38;;;15.38;100.00
13695;BME280;6919;52.344;14.518;2022-10-17T05:46:36;101445.94;;;15.36;100.00
13695;BME280;6919;52.344;14.518;2022-10-17T05:49:04;101441.66;;;15.26;100.00
13695;BME280;6919;52.344;14.518;2022-10-17T05:51:51;101447.25;;;15.32;100.00
13695;BME280;6919;52.344;14.518;2022-10-17T05:54:20;101446.03;;;15.27;100.00
13695;BME280;6919;52.344;14.518;2022-10-17T05:56:50;101448.63;;;15.36;100.00
13695;BME280;6919;52.344;14.518;2022-10-17T05:59:19;101452.38;;;15.43;100.00
13695;BME280;6919;52.344;14.518;2022-10-17T06:01:47;101454.31;;;15.33;100.00
13695;BME280;6919;52.344;14.518;2022-10-17T06:04:15;101449.00;;;15.49;100.00
13695;BME280;6919;52.344;14.518;2022-10-17T06:06:43;101451.88;;;15.48;100.00
13695;BME280;6919;52.344;14.518;2022-10-17T06:09:12;101449.34;;;15.46;100.00
13695;BME280;6919;52.344;14.518;2022-10-17T06:11:41;101447.13;;;15.42;100.00
13695;BME280;6919;52.344;14.518;2022-10-17T06:14:09;101453.72;;;15.47;100.00
13695;BME280;6919;52.344;14.518;2022-10-17T06:16:38;101458.81;;;15.50;100.00
13695;BME280;6919;52.344;14.518;2022-10-17T06:19:06;101459.13;;;15.47;100.00
13695;BME280;6919;52.344;14.518;2022-10-17T06:21:34;101464.59;;;15.55;100.00
13695;BME280;6919;52.344;14.518;2022-10-17T06:24:04;101459.34;;;15.62;100.00
13695;BME280;6919;52.344;14.518;2022-10-17T06:26:33;101463.59;;;15.72;100.00
13695;BME280;6919;52.344;14.518;2022-10-17T06:29:02;101465.84;;;15.93;100.00
13695;BME280;6919;52.344;14.518;2022-10-17T06:31:30;101470.72;;;15.81;100.00
13695;BME280;6919;52.344;14.518;2022-10-17T06:33:59;101480.00;;;15.87;100.00
13695;BME280;6919;52.344;14.518;2022-10-17T06:36:27;101479.16;;;15.86;100.00
13695;BME280;6919;52.344;14.518;2022-10-17T06:38:55;101484.41;;;15.88;100.00
13695;BME280;6919;52.344;14.518;2022-10-17T06:41:23;101481.84;;;15.78;100.00
13695;BME280;6919;52.344;14.518;2022-10-17T06:43:51;101486.59;;;15.84;100.00
13695;BME280;6919;52.344;14.518;2022-10-17T06:46:20;101483.09;;;15.92;100.00
13695;BME280;6919;52.344;14.518;2022-10-17T06:48:51;101488.28;;;15.93;100.00
13695;BME280;6919;52.344;14.518;2022-10-17T06:51:19;101490.50;;;15.90;100.00
13695;BME280;6919;52.344;14.518;2022-10-17T06:53:47;101491.53;;;16.05;100.00
13695;BME280;6919;52.344;14.518;2022-10-17T06:56:15;101492.38;;;16.13;100.00
13695;BME280;6919;52.344;14.518;2022-10-17T06:58:45;101494.44;;;16.19;100.00
13695;BME280;6919;52.344;14.518;2022-10-17T07:01:15;101503.53;;;16.10;100.00
13695;BME280;6919;52.344;14.518;2022-10-17T07:03:47;101504.22;;;16.04;100.00
13695;BME280;6919;52.344;14.518;2022-10-17T07:06:15;101503.22;;;15.97;100.00
13695;BME280;6919;52.344;14.518;2022-10-17T07:08:44;101507.94;;;16.03;100.00
13695;BME280;6919;52.344;14.518;2022-10-17T07:11:15;101506.78;;;16.14;100.00
13695;BME280;6919;52.344;14.518;2022-10-17T07:13:44;101513.00;;;16.14;100.00
13695;BME280;6919;52.344;14.518;2022-10-17T07:16:13;101521.81;;;16.08;100.00
13695;BME280;6919;52.344;14.518;2022-10-17T07:18:47;101518.28;;;16.24;100.00
13695;BME280;6919;52.344;14.518;2022-10-17T07:21:16;101505.25;;;16.27;100.00
13695;BME280;6919;52.344;14.518;2022-10-17T07:23:44;101513.88;;;16.39;100.00
13695;BME280;6919;52.344;14.518;2022-10-17T07:26:15;101505.94;;;16.61;100.00
13695;BME280;6919;52.344;14.518;2022-10-17T07:28:45;101504.91;;;16.70;100.00
13695;BME280;6919;52.344;14.518;2022-10-17T07:31:16;101501.47;;;16.92;100.00
13695;BME280;6919;52.344;14.518;2022-10-17T07:33:46;101499.44;;;16.94;100.00
13695;BME280;6919;52.344;14.518;2022-10-17T07:36:15;101500.56;;;17.08;100.00
13695;BME280;6919;52.344;14.518;2022-10-17T07:38:43;101495.34;;;16.98;100.00
13695;BME280;6919;52.344;14.518;2022-10-17T07:41:12;101499.28;;;17.34;100.00
13695;BME280;6919;52.344;14.518;2022-10-17T07:43:47;101506.09;;;17.30;100.00
13695;BME280;6919;52.344;14.518;2022-10-17T07:46:15;101507.97;;;17.22;100.00
13695;BME280;6919;52.344;14.518;2022-10-17T07:48:43;101515.28;;;17.21;100.00
13695;BME280;6919;52.344;14.518;2022-10-17T07:51:12;101511.25;;;17.17;100.00
13695;BME280;6919;52.344;14.518;2022-10-17T07:53:40;101517.31;;;17.19;100.00
13695;BME280;6919;52.344;14.518;2022-10-17T07:56:14;101511.53;;;17.22;100.00
13695;BME280;6919;52.344;14.518;2022-10-17T07:58:43;101522.13;;;17.40;100.00
13695;BME280;6919;52.344;14.518;2022-10-17T08:01:11;101516.16;;;17.61;100.00
13695;BME280;6919;52.344;14.518;2022-10-17T08:03:43;101523.13;;;17.55;100.00
13695;BME280;6919;52.344;14.518;2022-10-17T08:06:13;101519.22;;;17.58;100.00
13695;BME280;6919;52.344;14.518;2022-10-17T08:08:42;101525.13;;;17.61;100.00
13695;BME280;6919;52.344;14.518;2022-10-17T08:11:13;101527.66;;;17.71;100.00
13695;BME280;6919;52.344;14.518;2022-10-17T08:13:41;101520.72;;;17.91;100.00
13695;BME280;6919;52.344;14.518;2022-10-17T08:16:12;101517.94;;;17.99;100.00
13695;BME280;6919;52.344;14.518;2022-10-17T08:18:41;101516.41;;;18.04;100.00
13695;BME280;6919;52.344;14.518;2022-10-17T08:21:12;101504.44;;;18.13;100.00
13695;BME280;6919;52.344;14.518;2022-10-17T08:23:40;101514.16;;;18.30;100.00
13695;BME280;6919;52.344;14.518;2022-10-17T08:26:10;101516.31;;;18.43;100.00
13695;BME280;6919;52.344;14.518;2022-10-17T08:28:42;101515.81;;;18.39;100.00
13695;BME280;6919;52.344;14.518;2022-10-17T08:31:13;101515.94;;;18.46;100.00
13695;BME280;6919;52.344;14.518;2022-10-17T08:33:42;101513.06;;;18.62;100.00
13695;BME280;6919;52.344;14.518;2022-10-17T08:36:14;101514.59;;;18.79;100.00
13695;BME280;6919;52.344;14.518;2022-10-17T08:38:44;101511.59;;;18.88;100.00
13695;BME280;6919;52.344;14.518;2022-10-17T08:41:35;101509.66;;;19.11;100.00
13695;BME280;6919;52.344;14.518;2022-10-17T08:44:19;101515.56;;;19.15;100.00
13695;BME280;6919;52.344;14.518;2022-10-17T08:46:54;101512.56;;;19.24;100.00
13695;BME280;6919;52.344;14.518;2022-10-17T08:49:33;101513.25;;;19.26;100.00
13695;BME280;6919;52.344;14.518;2022-10-17T08:52:15;101519.34;;;19.28;100.00
13695;BME280;6919;52.344;14.518;2022-10-17T08:54:48;101514.84;;;19.35;100.00
13695;BME280;6919;52.344;14.518;2022-10-17T08:57:18;101511.34;;;19.41;100.00
13695;BME280;6919;52.344;14.518;2022-10-17T08:59:50;101514.88;;;19.71;100.00
13695;BME280;6919;52.344;14.518;2022-10-17T09:02:42;101512.50;;;19.82;100.00
13695;BME280;6919;52.344;14.518;2022-10-17T09:05:38;101517.75;;;19.84;100.00
13695;BME280;6919;52.344;14.518;2022-10-17T09:08:35;101513.66;;;20.30;100.00
13695;BME280;6919;52.344;14.518;2022-10-17T09:11:28;101521.72;;;20.17;100.00
13695;BME280;6919;52.344;14.518;2022-10-17T09:14:26;101522.75;;;20.37;100.00
13695;BME280;6919;52.344;14.518;2022-10-17T09:17:12;101522.75;;;20.37;100.00
13695;BME280;6919;52.344;14.518;2022-10-17T09:19:56;101514.72;;;20.50;100.00
13695;BME280;6919;52.344;14.518;2022-10-17T09:22:32;101513.06;;;20.56;100.00
13695;BME280;6919;52.344;14.518;2022-10-17T09:25:11;101509.06;;;20.79;100.00
13695;BME280;6919;52.344;14.518;2022-10-17T09:27:44;101509.50;;;20.83;100.00
13695;BME280;6919;52.344;14.518;2022-10-17T09:30:31;101512.91;;;20.91;100.00
13695;BME280;6919;52.344;14.518;2022-10-17T09:33:19;101500.84;;;21.00;100.00
13695;BME280;6919;52.344;14.518;2022-10-17T09:36:13;101507.81;;;21.09;100.00
13695;BME280;6919;52.344;14.518;2022-10-17T09:38:47;101498.66;;;21.17;100.00
13695;BME280;6919;52.344;14.518;2022-10-17T09:41:21;101497.16;;;21.14;100.00
13695;BME280;6919;52.344;14.518;2022-10-17T09:44:17;101495.81;;;21.31;100.00
13695;BME280;6919;52.344;14.518;2022-10-17T09:47:18;101499.44;;;21.51;100.00
13695;BME280;6919;52.344;14.518;2022-10-17T09:49:49;101508.97;;;21.62;100.00
13695;BME280;6919;52.344;14.518;2022-10-17T09:52:21;101496.03;;;21.83;100.00
13695;BME280;6919;52.344;14.518;2022-10-17T09:54:57;101496.88;;;21.90;100.00
13695;BME280;6919;52.344;14.518;2022-10-17T09:57:28;101498.19;;;22.01;100.00
13695;BME280;6919;52.344;14.518;2022-10-17T09:59:59;101502.59;;;22.08;100.00
13695;BME280;6919;52.344;14.518;2022-10-17T10:02:29;101501.56;;;22.22;100.00
13695;BME280;6919;52.344;14.518;2022-10-17T10:05:05;101504.75;;;22.32;100.00
13695;BME280;6919;52.344;14.518;2022-10-17T10:07:45;101511.25;;;22.18;100.00
13695;BME280;6919;52.344;14.518;2022-10-17T10:10:29;101508.75;;;22.36;100.00
13695;BME280;6919;52.344;14.518;2022-10-17T10:13:05;101507.06;;;22.35;100.00
13695;BME280;6919;52.344;14.518;2022-10-17T10:15:38;101519.66;;;22.30;100.00
13695;BME280;6919;52.344;14.518;2022-10-17T10:18:31;101505.22;;;22.62;100.00
13695;BME280;6919;52.344;14.518;2022-10-17T10:21:10;101515.09;;;22.76;100.00
13695;BME280;6919;52.344;14.518;2022-10-17T10:23:40;101513.63;;;22.73;100.00
13695;BME280;6919;52.344;14.518;2022-10-17T10:26:21;101508.16;;;22.80;100.00
13695;BME280;6919;52.344;14.518;2022-10-17T10:28:56;101513.56;;;23.13;100.00
13695;BME280;6919;52.344;14.518;2022-10-17T10:31:30;101509.94;;;23.38;100.00
13695;BME280;6919;52.344;14.518;2022-10-17T10:34:02;101510.41;;;23.16;100.00
13695;BME280;6919;52.344;14.518;2022-10-17T10:36:51;101508.28;;;23.18;100.00
13695;BME280;6919;52.344;14.518;2022-10-17T10:39:40;101498.66;;;23.09;100.00
13695;BME280;6919;52.344;14.518;2022-10-17T10:42:26;101505.97;;;23.15;100.00
13695;BME280;6919;52.344;14.518;2022-10-17T10:45:02;101493.34;;;23.14;100.00
13695;BME280;6919;52.344;14.518;2022-10-17T10:47:33;101493.78;;;23.24;100.00
13695;BME280;6919;52.344;14.518;2022-10-17T10:50:25;101495.84;;;23.35;100.00
13695;BME280;6919;52.344;14.518;2022-10-17T10:53:12;101496.63;;;23.55;100.00
13695;BME280;6919;52.344;14.518;2022-10-17T10:55:48;101489.22;;;23.62;100.00
13695;BME280;6919;52.344;14.518;2022-10-17T10:58:36;101493.47;;;23.58;100.00
13695;BME280;6919;52.344;14.518;2022-10-17T11:01:22;101493.75;;;23.81;100.00
13695;BME280;6919;52.344;14.518;2022-10-17T11:04:18;101495.84;;;23.85;100.00
13695;BME280;6919;52.344;14.518;2022-10-17T11:06:52;101489.41;;;24.11;100.00
13695;BME280;6919;52.344;14.518;2022-10-17T11:09:46;101491.38;;;24.28;100.00
13695;BME280;6919;52.344;14.518;2022-10-17T11:12:20;101496.16;;;24.39;100.00
13695;BME280;6919;52.344;14.518;2022-10-17T11:14:56;101488.81;;;24.33;100.00
13695;BME280;6919;52.344;14.518;2022-10-17T11:17:34;101487.03;;;24.45;100.00
13695;BME280;6919;52.344;14.518;2022-10-17T11:20:16;101486.69;;;24.35;100.00
13695;BME280;6919;52.344;14.518;2022-10-17T11:22:48;101496.38;;;24.38;100.00
13695;BME280;6919;52.344;14.518;2022-10-17T11:25:31;101481.34;;;24.47;100.00
13695;BME280;6919;52.344;14.518;2022-10-17T11:28:00;101482.31;;;24.28;100.00
13695;BME280;6919;52.344;14.518;2022-10-17T11:30:43;101486.84;;;24.16;100.00
13695;BME280;6919;52.344;14.518;2022-10-17T11:33:21;101485.69;;;24.30;100.00
13695;BME280;6919;52.344;14.518;2022-10-17T11:35:54;101475.38;;;24.25;100.00
13695;BME280;6919;52.344;14.518;2022-10-17T11:38:35;101476.09;;;24.39;100.00
13695;BME280;6919;52.344;14.518;2022-10-17T11:41:08;101468.84;;;24.51;100.00
13695;BME280;6919;52.344;14.518;2022-10-17T11:43:47;101466.66;;;24.59;100.00
13695;BME280;6919;52.344;14.518;2022-10-17T11:46:21;101467.84;;;24.70;100.00
13695;BME280;6919;52.344;14.518;2022-10-17T11:49:03;101469.06;;;24.74;100.00
13695;BME280;6919;52.344;14.518;2022-10-17T11:51:43;101461.84;;;24.79;100.00
13695;BME280;6919;52.344;14.518;2022-10-17T11:54:37;101467.84;;;24.70;100.00
13695;BME280;6919;52.344;14.518;2022-10-17T11:57:41;101460.50;;;24.88;100.00
13695;BME280;6919;52.344;14.518;2022-10-17T12:00:25;101460.94;;;24.85;100.00
13695;BME280;6919;52.344;14.518;2022-10-17T12:03:14;101456.53;;;24.84;100.00
13695;BME280;6919;52.344;14.518;2022-10-17T12:05:51;101457.00;;;24.99;100.00
13695;BME280;6919;52.344;14.518;2022-10-17T12:08:29;101445.78;;;25.01;100.00
13695;BME280;6919;52.344;14.518;2022-10-17T12:11:07;101458.94;;;25.17;100.00
13695;BME280;6919;52.344;14.518;2022-10-17T12:13:50;101461.41;;;25.18;100.00
13695;BME280;6919;52.344;14.518;2022-10-17T12:16:43;101448.31;;;25.57;100.00
13695;BME280;6919;52.344;14.518;2022-10-17T12:19:31;101449.00;;;25.34;100.00
13695;BME280;6919;52.344;14.518;2022-10-17T12:22:17;101447.72;;;25.55;100.00
13695;BME280;6919;52.344;14.518;2022-10-17T12:25:00;101450.81;;;25.58;100.00
13695;BME280;6919;52.344;14.518;2022-10-17T12:27:41;101445.91;;;25.78;100.00
13695;BME280;6919;52.344;14.518;2022-10-17T12:30:24;101441.78;;;25.69;100.00
13695;BME280;6919;52.344;14.518;2022-10-17T12:33:00;101428.50;;;25.66;100.00
13695;BME280;6919;52.344;14.518;2022-10-17T12:35:35;101428.22;;;25.74;100.00
13695;BME280;6919;52.344;14.518;2022-10-17T12:38:29;101425.03;;;25.89;100.00
13695;BME280;6919;52.344;14.518;2022-10-17T12:40:59;101431.94;;;25.80;99.04
13695;BME280;6919;52.344;14.518;2022-10-17T12:43:52;101428.84;;;25.88;100.00
13695;BME280;6919;52.344;14.518;2022-10-17T12:46:48;101431.75;;;25.63;98.68
13695;BME280;6919;52.344;14.518;2022-10-17T12:49:41;101419.06;;;25.62;95.28
13695;BME280;6919;52.344;14.518;2022-10-17T12:52:51;101427.03;;;25.52;94.75
13695;BME280;6919;52.344;14.518;2022-10-17T12:55:25;101418.19;;;25.50;93.41
13695;BME280;6919;52.344;14.518;2022-10-17T12:57:57;101424.00;;;25.42;95.84
13695;BME280;6919;52.344;14.518;2022-10-17T13:00:36;101417.53;;;25.66;94.24
13695;BME280;6919;52.344;14.518;2022-10-17T13:03:30;101415.28;;;25.45;93.89
13695;BME280;6919;52.344;14.518;2022-10-17T13:06:03;101414.06;;;25.41;96.81
13695;BME280;6919;52.344;14.518;2022-10-17T13:08:38;101406.91;;;25.40;94.67
13695;BME280;6919;52.344;14.518;2022-10-17T13:11:09;101409.84;;;25.57;94.93
13695;BME280;6919;52.344;14.518;2022-10-17T13:13:44;101405.59;;;25.42;96.66
13695;BME280;6919;52.344;14.518;2022-10-17T13:16:28;101413.09;;;25.65;93.94
13695;BME280;6919;52.344;14.518;2022-10-17T13:18:58;101414.59;;;25.79;92.10